Time,TemperatureF,DewpointF,PressureIn,WindDirection,WindDirectionDegrees,WindSpeedMPH,WindSpeedGustMPH,Humidity,HourlyPrecipIn,Conditions,Clouds,dailyrainin,SoftwareType,DateUTC
2013-07-01 00:01:00,72.1,54.1,29.91,NNE,22,2.3,2.3,53,0.00,CLR,,0.00,WeatherDisplay:10.37,2013-07-01 05:01:00,
2013-07-01 00:06:00,72.1,54.6,29.91,North,0,3.5,3.5,54,0.00,CLR,,0.00,WeatherDisplay:10.37,2013-07-01 05:06:00,
2013-07-01 00:11:00,71.8,54.7,29.91,North,0,3.5,3.5,55,0.00,CLR,,0.00,WeatherDisplay:10.37,2013-07-01 05:11:00,
2013-07-01 00:16:00,71.8,54.7,29.94,North,0,3.5,3.5,55,0.00,CLR,,0.00,WeatherDisplay:10.37,2013-07-01 05:16:00,
2013-07-01 00:22:00,71.6,54.6,29.94,North,0,2.3,2.3,55,0.00,CLR,,0.00,WeatherDisplay:10.37,2013-07-01 05:22:00,
2013-07-01 00:27:00,71.6,55.1,29.94,North,0,2.3,2.3,56,0.00,CLR,,0.00,WeatherDisplay:10.37,2013-07-01 05:27:00,
2013-07-01 00:32:00,71.2,54.7,29.94,North,0,2.3,2.3,56,0.00,CLR,,0.00,WeatherDisplay:10.37,2013-07-01 05:32:00,
2013-07-01 00:37:00,71.1,55.1,29.94,North,0,2.3,2.3,57,0.00,CLR,,0.00,WeatherDisplay:10.37,2013-07-01 05:37:00,
2013-07-01 00:42:00,71.1,55.5,29.94,North,0,2.3,2.3,58,0.00,CLR,,0.00,WeatherDisplay:10.37,2013-07-01 05:42:00,
2013-07-01 00:47:00,70.9,55.4,29.94,WSW,248,1.2,0.0,58,0.00,CLR,,0.00,WeatherDisplay:10.37,2013-07-01 05:47:00,
2013-07-01 00:52:00,70.7,55.2,29.94,NNE,22,2.3,2.3,58,0.00,CLR,,0.00,WeatherDisplay:10.37,2013-07-01 05:52:00,
2013-07-01 00:57:00,70.5,55.5,29.94,NNE,22,2.3,2.3,59,0.00,CLR,,0.00,WeatherDisplay:10.37,2013-07-01 05:57:00,
2013-07-01 01:02:00,70.5,56.0,29.94,North,0,2.3,2.3,60,0.00,CLR,,0.00,WeatherDisplay:10.37,2013-07-01 06:02:00,
2013-07-01 01:07:00,70.3,55.8,29.94,North,0,2.3,2.3,60,0.00,CLR,,0.00,WeatherDisplay:10.37,2013-07-01 06:07:00,
2013-07-01 01:12:00,70.3,55.8,29.94,North,0,3.5,3.5,60,0.00,CLR,,0.00,WeatherDisplay:10.37,2013-07-01 06:12:00,
2013-07-01 01:17:00,70.3,55.8,29.91,North,0,2.3,2.3,60,0.00,CLR,,0.00,WeatherDisplay:10.37,2013-07-01 06:17:00,
2013-07-01 01:22:00,70.2,56.1,29.91,North,0,3.5,3.5,61,0.00,CLR,,0.00,WeatherDisplay:10.37,2013-07-01 06:22:00,
2013-07-01 01:27:00,70.0,55.9,29.91,North,0,3.5,3.5,61,0.00,CLR,,0.00,WeatherDisplay:10.37,2013-07-01 06:27:00,
2013-07-01 01:32:00,70.0,56.4,29.94,North,0,3.5,3.5,62,0.00,CLR,,0.00,WeatherDisplay:10.37,2013-07-01 06:32:00,
2013-07-01 01:37:00,69.8,56.2,29.94,North,0,2.3,2.3,62,0.00,CLR,,0.00,WeatherDisplay:10.37,2013-07-01 06:37:00,
2013-07-01 01:42:00,69.8,56.2,29.94,North,0,2.3,2.4,62,0.00,CLR,,0.00,WeatherDisplay:10.37,2013-07-01 06:42:00,
2013-07-01 01:47:00,69.6,56.9,29.91,NE,45,2.3,2.4,64,0.00,CLR,,0.00,WeatherDisplay:10.37,2013-07-01 06:47:00,
2013-07-01 01:52:00,69.4,56.3,29.91,North,0,4.6,4.6,63,0.00,CLR,,0.00,WeatherDisplay:10.37,2013-07-01 06:52:00,
2013-07-01 01:57:00,69.4,56.7,29.91,North,0,4.6,4.6,64,0.00,CLR,,0.00,WeatherDisplay:10.37,2013-07-01 06:57:00,
2013-07-01 02:02:00,69.3,56.6,29.91,North,0,3.5,3.5,64,0.00,CLR,,0.00,WeatherDisplay:10.37,2013-07-01 07:02:00,
2013-07-01 02:07:00,69.3,56.6,29.91,North,0,2.3,2.3,64,0.00,CLR,,0.00,WeatherDisplay:10.37,2013-07-01 07:07:00,
2013-07-01 02:12:00,69.1,56.8,29.91,NE,45,3.5,3.5,65,0.00,CLR,,0.00,WeatherDisplay:10.37,2013-07-01 07:12:00,
2013-07-01 02:17:00,69.1,56.8,29.91,North,0,3.5,3.5,65,0.00,CLR,,0.00,WeatherDisplay:10.37,2013-07-01 07:17:00,
2013-07-01 02:22:00,68.9,56.6,29.91,North,0,2.3,2.3,65,0.00,CLR,,0.00,WeatherDisplay:10.37,2013-07-01 07:22:00,
2013-07-01 02:27:00,68.7,56.9,29.91,NNW,338,1.2,1.2,66,0.00,CLR,,0.00,WeatherDisplay:10.37,2013-07-01 07:27:00,
2013-07-01 02:32:00,68.5,56.7,29.91,North,0,2.3,2.3,66,0.00,CLR,,0.00,WeatherDisplay:10.37,2013-07-01 07:32:00,
2013-07-01 02:37:00,68.4,57.0,29.91,North,0,3.5,3.5,67,0.00,CLR,,0.00,WeatherDisplay:10.37,2013-07-01 07:37:00,
2013-07-01 02:42:00,68.4,57.0,29.91,NNW,338,3.6,3.6,67,0.00,CLR,,0.00,WeatherDisplay:10.37,2013-07-01 07:42:00,
2013-07-01 02:47:00,68.4,57.0,29.91,NNW,338,2.3,2.3,67,0.00,CLR,,0.00,WeatherDisplay:10.37,2013-07-01 07:47:00,
2013-07-01 02:52:00,68.2,57.2,29.91,North,0,3.5,3.5,68,0.00,CLR,,0.00,WeatherDisplay:10.37,2013-07-01 07:52:00,
2013-07-01 02:57:00,68.2,57.2,29.91,North,0,1.2,1.2,68,0.00,CLR,,0.00,WeatherDisplay:10.37,2013-07-01 07:57:00,
2013-07-01 03:02:00,68.0,57.0,29.91,North,0,0.0,0.0,68,0.00,CLR,,0.00,WeatherDisplay:10.37,2013-07-01 08:02:00,
2013-07-01 03:07:00,68.0,57.0,29.91,NW,315,1.2,0.0,68,0.00,CLR,,0.00,WeatherDisplay:10.37,2013-07-01 08:07:00,
2013-07-01 03:12:00,67.8,57.3,29.91,SE,135,0.0,0.0,69,0.00,CLR,,0.00,WeatherDisplay:10.37,2013-07-01 08:12:00,
2013-07-01 03:17:00,67.6,57.1,29.91,NNE,22,2.3,2.3,69,0.00,CLR,,0.00,WeatherDisplay:10.37,2013-07-01 08:17:00,
2013-07-01 03:22:00,67.6,57.1,29.91,North,0,2.3,2.3,69,0.00,CLR,,0.00,WeatherDisplay:10.37,2013-07-01 08:22:00,
2013-07-01 03:27:00,67.6,57.1,29.91,NNW,338,2.9,2.9,69,0.00,CLR,,0.00,WeatherDisplay:10.37,2013-07-01 08:27:00,
2013-07-01 03:32:00,67.5,57.3,29.91,North,0,2.3,2.3,70,0.00,CLR,,0.00,WeatherDisplay:10.37,2013-07-01 08:32:00,
2013-07-01 03:37:00,67.5,57.7,29.91,North,0,2.3,2.3,71,0.00,CLR,,0.00,WeatherDisplay:10.37,2013-07-01 08:37:00,
2013-07-01 03:42:00,67.3,57.6,29.94,North,0,2.3,2.3,71,0.00,CLR,,0.00,WeatherDisplay:10.37,2013-07-01 08:42:00,
2013-07-01 03:47:00,67.3,57.6,29.94,North,0,3.5,3.5,71,0.00,CLR,,0.00,WeatherDisplay:10.37,2013-07-01 08:47:00,
2013-07-01 03:52:00,67.3,57.6,29.94,North,0,4.6,4.6,71,0.00,CLR,,0.00,WeatherDisplay:10.37,2013-07-01 08:52:00,
2013-07-01 03:57:00,67.1,57.4,29.91,North,0,2.3,2.3,71,0.00,CLR,,0.00,WeatherDisplay:10.37,2013-07-01 08:57:00,
2013-07-01 04:02:00,67.1,57.8,29.91,NNE,22,3.5,3.5,72,0.00,CLR,,0.00,WeatherDisplay:10.37,2013-07-01 09:02:00,
2013-07-01 04:07:00,66.9,57.6,29.91,NNE,22,3.5,3.5,72,0.00,CLR,,0.00,WeatherDisplay:10.37,2013-07-01 09:07:00,
2013-07-01 04:12:00,66.9,57.6,29.94,North,0,2.3,2.3,72,0.00,CLR,,0.00,WeatherDisplay:10.37,2013-07-01 09:12:00,
2013-07-01 04:17:00,66.9,58.0,29.94,NE,45,2.3,2.3,73,0.00,CLR,,0.00,WeatherDisplay:10.37,2013-07-01 09:17:00,
2013-07-01 04:22:00,66.9,57.6,29.94,North,0,3.1,3.1,72,0.00,CLR,,0.00,WeatherDisplay:10.37,2013-07-01 09:22:00,
2013-07-01 04:27:00,67.1,58.2,29.94,NNE,22,1.2,1.2,73,0.00,CLR,,0.00,WeatherDisplay:10.37,2013-07-01 09:27:00,
2013-07-01 04:32:00,67.1,58.2,29.94,North,0,3.5,3.5,73,0.00,CLR,,0.00,WeatherDisplay:10.37,2013-07-01 09:32:00,
2013-07-01 04:37:00,67.1,58.5,29.94,NNE,22,3.5,3.5,74,0.00,CLR,,0.00,WeatherDisplay:10.37,2013-07-01 09:37:00,
2013-07-01 04:42:00,67.1,58.5,29.94,NNE,22,4.6,4.6,74,0.00,CLR,,0.00,WeatherDisplay:10.37,2013-07-01 09:42:00,
2013-07-01 04:47:00,67.1,58.5,29.94,NNW,338,4.6,4.6,74,0.00,CLR,,0.00,WeatherDisplay:10.37,2013-07-01 09:47:00,
2013-07-01 04:52:00,67.1,58.5,29.94,North,0,4.6,4.6,74,0.00,CLR,,0.00,WeatherDisplay:10.37,2013-07-01 09:52:00,
2013-07-01 04:57:00,67.1,58.5,29.94,NNW,338,3.5,3.5,74,0.00,CLR,,0.00,WeatherDisplay:10.37,2013-07-01 09:57:00,
2013-07-01 05:02:00,67.1,58.5,29.94,NW,315,3.5,3.5,74,0.00,CLR,,0.00,WeatherDisplay:10.37,2013-07-01 10:02:00,
2013-07-01 05:07:00,66.9,58.7,29.94,North,0,4.6,4.6,75,0.00,CLR,,0.00,WeatherDisplay:10.37,2013-07-01 10:07:00,
2013-07-01 05:13:00,66.9,58.7,29.94,NE,45,4.6,4.6,75,0.00,CLR,,0.00,WeatherDisplay:10.37,2013-07-01 10:13:00,
2013-07-01 05:18:00,66.9,58.7,29.94,NNW,338,3.5,3.5,75,0.00,CLR,,0.00,WeatherDisplay:10.37,2013-07-01 10:18:00,
2013-07-01 05:23:00,66.9,58.7,29.94,North,0,2.3,2.4,75,0.00,CLR,,0.00,WeatherDisplay:10.37,2013-07-01 10:23:00,
2013-07-01 05:28:00,66.9,58.7,29.94,NNE,22,2.3,2.3,75,0.00,CLR,,0.00,WeatherDisplay:10.37,2013-07-01 10:28:00,
2013-07-01 05:33:00,66.9,58.7,29.94,North,0,3.5,3.5,75,0.00,CLR,,0.00,WeatherDisplay:10.37,2013-07-01 10:33:00,
2013-07-01 05:38:00,66.7,58.6,29.94,NE,45,4.6,4.6,75,0.00,CLR,,0.00,WeatherDisplay:10.37,2013-07-01 10:38:00,
2013-07-01 05:43:00,66.7,58.6,29.94,North,0,2.4,2.9,75,0.00,CLR,,0.00,WeatherDisplay:10.37,2013-07-01 10:43:00,
2013-07-01 05:48:00,66.6,58.8,29.94,NNW,338,3.5,3.5,76,0.00,CLR,,0.00,WeatherDisplay:10.37,2013-07-01 10:48:00,
2013-07-01 05:53:00,66.6,58.8,29.94,North,0,3.5,3.5,76,0.00,CLR,,0.00,WeatherDisplay:10.37,2013-07-01 10:53:00,
2013-07-01 05:58:00,66.7,58.9,29.97,NNE,22,3.5,3.5,76,0.00,CLR,,0.00,WeatherDisplay:10.37,2013-07-01 10:58:00,
2013-07-01 06:03:00,66.7,58.9,29.97,NW,315,3.5,3.5,76,0.00,CLR,,0.00,WeatherDisplay:10.37,2013-07-01 11:03:00,
2013-07-01 06:08:00,66.6,58.8,29.97,North,0,2.3,2.4,76,0.00,CLR,,0.00,WeatherDisplay:10.37,2013-07-01 11:08:00,
2013-07-01 06:13:00,66.6,58.8,29.97,North,0,1.2,2.2,76,0.00,CLR,,0.00,WeatherDisplay:10.37,2013-07-01 11:13:00,
2013-07-01 06:18:00,66.6,58.8,29.97,North,0,3.5,3.5,76,0.00,CLR,,0.00,WeatherDisplay:10.37,2013-07-01 11:18:00,
2013-07-01 06:23:00,66.6,59.1,29.97,North,0,3.5,3.6,77,0.00,CLR,,0.00,WeatherDisplay:10.37,2013-07-01 11:23:00,
2013-07-01 06:28:00,66.6,59.1,29.97,North,0,4.6,4.6,77,0.00,CLR,,0.00,WeatherDisplay:10.37,2013-07-01 11:28:00,
2013-07-01 06:33:00,66.6,59.1,29.97,NNW,338,2.3,2.3,77,0.00,CLR,,0.00,WeatherDisplay:10.37,2013-07-01 11:33:00,
2013-07-01 06:38:00,66.6,59.1,29.97,North,0,3.5,3.5,77,0.00,CLR,,0.00,WeatherDisplay:10.37,2013-07-01 11:38:00,
2013-07-01 06:43:00,66.6,59.1,29.97,NNE,22,3.5,3.5,77,0.00,CLR,,0.00,WeatherDisplay:10.37,2013-07-01 11:43:00,
2013-07-01 06:48:00,66.6,59.1,29.97,North,0,2.3,2.3,77,0.00,CLR,,0.00,WeatherDisplay:10.37,2013-07-01 11:48:00,
2013-07-01 06:53:00,66.7,59.3,29.97,North,0,4.6,4.6,77,0.00,CLR,,0.00,WeatherDisplay:10.37,2013-07-01 11:53:00,
2013-07-01 06:58:00,66.7,59.3,29.97,North,0,3.5,3.5,77,0.00,CLR,,0.00,WeatherDisplay:10.37,2013-07-01 11:58:00,
2013-07-01 07:03:00,66.9,59.5,29.97,North,0,3.5,3.5,77,0.00,CLR,,0.00,WeatherDisplay:10.37,2013-07-01 12:03:00,
2013-07-01 07:08:00,67.1,59.6,29.97,NW,315,1.6,1.6,77,0.00,CLR,,0.00,WeatherDisplay:10.37,2013-07-01 12:08:00,
2013-07-01 07:13:00,67.3,59.8,30.00,NNE,22,2.3,2.6,77,0.00,CLR,,0.00,WeatherDisplay:10.37,2013-07-01 12:13:00,
2013-07-01 07:18:00,67.5,60.0,30.00,SW,225,2.3,2.3,77,0.00,CLR,,0.00,WeatherDisplay:10.37,2013-07-01 12:18:00,
2013-07-01 07:23:00,67.6,60.2,30.00,NNE,22,3.5,3.5,77,0.00,CLR,,0.00,WeatherDisplay:10.37,2013-07-01 12:23:00,
2013-07-01 07:28:00,67.8,60.0,30.00,NNW,338,2.3,2.3,76,0.00,CLR,,0.00,WeatherDisplay:10.37,2013-07-01 12:28:00,
2013-07-01 07:33:00,68.2,60.3,30.00,NE,45,3.5,3.5,76,0.00,CLR,,0.00,WeatherDisplay:10.37,2013-07-01 12:33:00,
2013-07-01 07:38:00,68.5,60.7,30.00,NE,45,4.6,4.6,76,0.00,CLR,,0.00,WeatherDisplay:10.37,2013-07-01 12:38:00,
2013-07-01 07:43:00,68.7,60.5,30.03,North,0,4.6,4.6,75,0.00,CLR,,0.00,WeatherDisplay:10.37,2013-07-01 12:43:00,
2013-07-01 09:00:00,69.1,60.8,30.03,NE,45,3.5,3.5,75,0.00,CLR,,0.00,WeatherDisplay:10.37,2013-07-01 14:00:00,
2013-07-01 09:05:00,72.9,61.7,30.06,North,0,4.6,4.6,68,0.00,CLR,,0.00,WeatherDisplay:10.37,2013-07-01 14:05:00,
2013-07-01 09:10:00,73.0,61.4,30.06,North,0,3.6,3.6,67,0.00,CLR,,0.00,WeatherDisplay:10.37,2013-07-01 14:10:00,
2013-07-01 09:15:00,73.0,61.4,30.06,SW,225,3.5,3.5,67,0.00,CLR,,0.00,WeatherDisplay:10.37,2013-07-01 14:15:00,
2013-07-01 09:20:00,73.8,61.7,30.06,NNW,338,5.8,5.8,66,0.00,CLR,,0.00,WeatherDisplay:10.37,2013-07-01 14:20:00,
2013-07-01 09:25:00,74.1,61.6,30.06,NNW,338,8.1,8.1,65,0.00,CLR,,0.00,WeatherDisplay:10.37,2013-07-01 14:25:00,
2013-07-01 09:30:00,74.3,61.8,30.06,NE,45,3.5,3.5,65,0.00,CLR,,0.00,WeatherDisplay:10.37,2013-07-01 14:30:00,
2013-07-01 09:35:00,74.7,62.1,30.06,North,0,4.9,4.9,65,0.00,CLR,,0.00,WeatherDisplay:10.37,2013-07-01 14:35:00,
2013-07-01 09:40:00,75.0,62.0,30.06,North,0,5.8,5.8,64,0.00,CLR,,0.00,WeatherDisplay:10.37,2013-07-01 14:40:00,
2013-07-01 09:45:00,75.4,61.0,30.06,North,0,8.1,8.1,61,0.00,CLR,,0.00,WeatherDisplay:10.37,2013-07-01 14:45:00,
2013-07-01 09:50:00,75.7,60.9,30.06,North,0,9.2,9.2,60,0.00,CLR,,0.00,WeatherDisplay:10.37,2013-07-01 14:50:00,
2013-07-01 09:55:00,75.9,60.6,30.06,North,0,8.1,8.1,59,0.00,CLR,,0.00,WeatherDisplay:10.37,2013-07-01 14:55:00,
2013-07-01 10:00:00,75.9,60.6,30.06,North,0,6.0,6.0,59,0.00,CLR,,0.00,WeatherDisplay:10.37,2013-07-01 15:00:00,
2013-07-01 10:05:00,76.3,60.4,30.06,North,0,9.2,9.2,58,0.00,CLR,,0.00,WeatherDisplay:10.37,2013-07-01 15:05:00,
2013-07-01 10:10:00,76.3,60.4,30.06,North,0,6.9,6.9,58,0.00,CLR,,0.00,WeatherDisplay:10.37,2013-07-01 15:10:00,
2013-07-01 10:15:00,76.5,60.1,30.06,NNW,338,6.9,6.9,57,0.00,CLR,,0.00,WeatherDisplay:10.37,2013-07-01 15:15:00,
2013-07-01 10:20:00,76.6,59.8,30.06,North,0,10.7,10.7,56,0.00,CLR,,0.00,WeatherDisplay:10.37,2013-07-01 15:20:00,
2013-07-01 10:25:00,76.6,59.8,30.06,North,0,10.4,10.4,56,0.00,CLR,,0.00,WeatherDisplay:10.37,2013-07-01 15:25:00,
2013-07-01 10:30:00,76.8,60.4,30.06,NNW,338,6.9,6.9,57,0.00,CLR,,0.00,WeatherDisplay:10.37,2013-07-01 15:30:00,
2013-07-01 10:35:00,77.0,59.6,30.06,NE,45,8.1,8.1,55,0.00,CLR,,0.00,WeatherDisplay:10.37,2013-07-01 15:35:00,
2013-07-01 10:40:00,77.2,59.2,30.06,NNW,338,8.7,8.7,54,0.00,CLR,,0.00,WeatherDisplay:10.37,2013-07-01 15:40:00,
2013-07-01 10:45:00,77.2,59.2,30.06,North,0,9.2,9.2,54,0.00,CLR,,0.00,WeatherDisplay:10.37,2013-07-01 15:45:00,
2013-07-01 10:50:00,77.5,59.6,30.06,NW,315,8.1,8.1,54,0.00,CLR,,0.00,WeatherDisplay:10.37,2013-07-01 15:50:00,
2013-07-01 10:55:00,77.5,59.1,30.06,North,0,8.1,8.1,53,0.00,CLR,,0.00,WeatherDisplay:10.37,2013-07-01 15:55:00,
2013-07-01 11:00:00,77.7,59.2,30.09,North,0,10.4,10.4,53,0.00,CLR,,0.00,WeatherDisplay:10.37,2013-07-01 16:00:00,
2013-07-01 11:05:00,77.9,58.9,30.09,North,0,8.1,8.1,52,0.00,CLR,,0.00,WeatherDisplay:10.37,2013-07-01 16:05:00,
2013-07-01 11:10:00,78.1,59.0,30.09,North,0,15.0,15.0,52,0.00,CLR,,0.00,WeatherDisplay:10.37,2013-07-01 16:10:00,
2013-07-01 11:15:00,78.3,58.6,30.09,NNE,22,6.9,6.9,51,0.00,CLR,,0.00,WeatherDisplay:10.37,2013-07-01 16:15:00,
2013-07-01 11:20:00,78.4,58.8,30.09,North,0,6.9,6.9,51,0.00,CLR,,0.00,WeatherDisplay:10.37,2013-07-01 16:20:00,
2013-07-01 11:26:00,78.6,59.0,30.09,North,0,9.2,9.2,51,0.00,CLR,,0.00,WeatherDisplay:10.37,2013-07-01 16:26:00,
2013-07-01 11:31:00,78.8,58.6,30.06,North,0,5.8,5.8,50,0.00,CLR,,0.00,WeatherDisplay:10.37,2013-07-01 16:31:00,
2013-07-01 11:36:00,78.4,57.7,30.06,NW,315,8.1,8.1,49,0.00,CLR,,0.00,WeatherDisplay:10.37,2013-07-01 16:36:00,
2013-07-01 11:41:00,78.6,57.3,30.06,North,0,5.8,5.8,48,0.00,CLR,,0.00,WeatherDisplay:10.37,2013-07-01 16:41:00,
2013-07-01 11:46:00,78.6,57.9,30.09,NW,315,6.9,6.9,49,0.00,CLR,,0.00,WeatherDisplay:10.37,2013-07-01 16:46:00,
2013-07-01 11:51:00,79.0,57.6,30.09,NNE,22,4.6,4.6,48,0.00,CLR,,0.00,WeatherDisplay:10.37,2013-07-01 16:51:00,
2013-07-01 11:56:00,78.8,56.9,30.09,NNW,338,6.9,6.9,47,0.00,CLR,,0.00,WeatherDisplay:10.37,2013-07-01 16:56:00,
2013-07-01 12:01:00,79.0,57.6,30.06,NNW,338,10.4,10.4,48,0.00,CLR,,0.00,WeatherDisplay:10.37,2013-07-01 17:01:00,
2013-07-01 12:06:00,79.0,57.0,30.06,North,0,10.4,10.4,47,0.00,CLR,,0.00,WeatherDisplay:10.37,2013-07-01 17:06:00,
2013-07-01 12:11:00,79.2,57.8,30.06,NE,45,11.5,11.5,48,0.00,CLR,,0.00,WeatherDisplay:10.37,2013-07-01 17:11:00,
2013-07-01 12:16:00,79.3,57.4,30.06,NE,45,6.9,6.9,47,0.00,CLR,,0.00,WeatherDisplay:10.37,2013-07-01 17:16:00,
2013-07-01 12:21:00,79.3,57.9,30.06,NE,45,9.2,9.2,48,0.00,CLR,,0.00,WeatherDisplay:10.37,2013-07-01 17:21:00,
2013-07-01 12:26:00,79.5,56.9,30.06,North,0,6.9,6.9,46,0.00,CLR,,0.00,WeatherDisplay:10.37,2013-07-01 17:26:00,
2013-07-01 12:31:00,79.7,57.1,30.06,SW,225,8.1,8.1,46,0.00,CLR,,0.00,WeatherDisplay:10.37,2013-07-01 17:31:00,
2013-07-01 12:36:00,80.2,58.2,30.06,North,0,5.8,5.8,47,0.00,CLR,,0.00,WeatherDisplay:10.37,2013-07-01 17:36:00,
2013-07-01 12:41:00,80.4,58.3,30.06,South,180,5.8,5.8,47,0.00,CLR,,0.00,WeatherDisplay:10.37,2013-07-01 17:41:00,
2013-07-01 12:46:00,80.4,58.3,30.03,NNE,22,4.6,4.6,47,0.00,CLR,,0.00,WeatherDisplay:10.37,2013-07-01 17:46:00,
2013-07-01 12:51:00,80.4,58.3,30.03,North,0,5.8,5.8,47,0.00,CLR,,0.00,WeatherDisplay:10.37,2013-07-01 17:51:00,
2013-07-01 12:56:00,81.0,57.6,30.03,NNW,338,6.9,6.9,45,0.00,CLR,,0.00,WeatherDisplay:10.37,2013-07-01 17:56:00,
2013-07-01 13:01:00,80.8,56.8,30.03,North,0,10.4,10.4,44,0.00,SCT,,0.00,WeatherDisplay:10.37,2013-07-01 18:01:00,
2013-07-01 13:06:00,80.8,57.5,30.03,North,0,8.7,8.7,45,0.00,SCT,,0.00,WeatherDisplay:10.37,2013-07-01 18:06:00,
2013-07-01 13:11:00,81.0,57.6,30.03,North,0,8.1,8.1,45,0.00,SCT,,0.00,WeatherDisplay:10.37,2013-07-01 18:11:00,
2013-07-01 13:16:00,81.1,57.2,30.03,WNW,292,11.5,11.5,44,0.00,SCT,,0.00,WeatherDisplay:10.37,2013-07-01 18:16:00,
2013-07-01 13:21:00,81.5,58.1,30.03,NNW,338,6.2,6.2,45,0.00,SCT,,0.00,WeatherDisplay:10.37,2013-07-01 18:21:00,
2013-07-01 13:26:00,81.7,58.3,30.03,North,0,9.2,9.2,45,0.00,SCT,,0.00,WeatherDisplay:10.37,2013-07-01 18:26:00,
2013-07-01 13:31:00,81.7,58.3,30.03,North,0,8.1,8.1,45,0.00,SCT,,0.00,WeatherDisplay:10.37,2013-07-01 18:31:00,
2013-07-01 13:36:00,81.3,57.3,30.03,North,0,6.9,6.9,44,0.00,SCT,,0.00,WeatherDisplay:10.37,2013-07-01 18:36:00,
2013-07-01 13:41:00,81.3,57.3,30.03,NNW,338,8.1,8.1,44,0.00,SCT,,0.00,WeatherDisplay:10.37,2013-07-01 18:41:00,
2013-07-01 13:46:00,81.5,57.5,30.03,SSE,158,10.4,10.4,44,0.00,SCT,,0.00,WeatherDisplay:10.37,2013-07-01 18:46:00,
2013-07-01 13:51:00,81.7,57.6,30.03,NNE,22,10.4,10.4,44,0.00,SCT,,0.00,WeatherDisplay:10.37,2013-07-01 18:51:00,
2013-07-01 13:56:00,81.7,57.6,30.03,North,0,8.1,8.1,44,0.00,SCT,,0.00,WeatherDisplay:10.37,2013-07-01 18:56:00,
2013-07-01 14:02:00,81.9,57.2,30.03,North,0,5.8,5.8,43,0.00,SCT,,0.00,WeatherDisplay:10.37,2013-07-01 19:02:00,
2013-07-01 14:07:00,81.9,57.2,30.03,NW,315,10.4,10.4,43,0.00,SCT,,0.00,WeatherDisplay:10.37,2013-07-01 19:07:00,
2013-07-01 14:12:00,81.9,57.2,30.03,North,0,6.9,6.9,43,0.00,SCT,,0.00,WeatherDisplay:10.37,2013-07-01 19:12:00,
2013-07-01 14:17:00,81.9,57.2,30.00,NNE,22,8.1,8.1,43,0.00,SCT,,0.00,WeatherDisplay:10.37,2013-07-01 19:17:00,
2013-07-01 14:22:00,81.9,57.2,30.00,East,90,6.9,6.9,43,0.00,SCT,,0.00,WeatherDisplay:10.37,2013-07-01 19:22:00,
2013-07-01 14:27:00,81.7,57.0,30.00,North,0,9.2,9.2,43,0.00,SCT,,0.00,WeatherDisplay:10.37,2013-07-01 19:27:00,
2013-07-01 14:32:00,81.9,56.5,30.03,South,180,3.5,3.6,42,0.00,SCT,,0.00,WeatherDisplay:10.37,2013-07-01 19:32:00,
2013-07-01 14:37:00,82.2,56.8,30.03,NNW,338,5.8,5.8,42,0.00,SCT,,0.00,WeatherDisplay:10.37,2013-07-01 19:37:00,
2013-07-01 14:42:00,82.4,57.0,30.03,NE,45,4.6,4.6,42,0.00,SCT,,0.00,WeatherDisplay:10.37,2013-07-01 19:42:00,
2013-07-01 14:47:00,82.4,57.0,30.03,North,0,5.8,5.8,42,0.00,SCT,,0.00,WeatherDisplay:10.37,2013-07-01 19:47:00,
2013-07-01 14:52:00,82.0,56.7,30.03,NNW,338,5.8,6.7,42,0.00,SCT,,0.00,WeatherDisplay:10.37,2013-07-01 19:52:00,
2013-07-01 14:57:00,82.0,56.7,30.03,NNW,338,5.8,5.8,42,0.00,SCT,,0.00,WeatherDisplay:10.37,2013-07-01 19:57:00,
2013-07-01 15:02:00,82.0,56.7,30.03,SSW,202,9.2,9.2,42,0.00,SCT,,0.00,WeatherDisplay:10.37,2013-07-01 20:02:00,
2013-07-01 15:07:00,82.6,56.5,30.03,NE,45,5.8,5.8,41,0.00,SCT,,0.00,WeatherDisplay:10.37,2013-07-01 20:07:00,
2013-07-01 15:12:00,82.6,56.5,30.03,NE,45,6.9,6.9,41,0.00,SCT,,0.00,WeatherDisplay:10.37,2013-07-01 20:12:00,
2013-07-01 15:17:00,82.6,56.5,30.00,North,0,11.5,11.5,41,0.00,SCT,,0.00,WeatherDisplay:10.37,2013-07-01 20:17:00,
2013-07-01 15:22:00,82.9,56.8,30.00,NNW,338,8.1,8.1,41,0.00,SCT,,0.00,WeatherDisplay:10.37,2013-07-01 20:22:00,
2013-07-01 15:27:00,83.1,56.3,30.00,NNE,22,4.6,4.6,40,0.00,SCT,,0.00,WeatherDisplay:10.37,2013-07-01 20:27:00,
2013-07-01 15:32:00,83.1,56.3,30.00,NNE,22,5.8,5.8,40,0.00,BKN,,0.00,WeatherDisplay:10.37,2013-07-01 20:32:00,
2013-07-01 15:37:00,83.1,56.3,30.00,North,0,5.8,5.8,40,0.00,BKN,,0.00,WeatherDisplay:10.37,2013-07-01 20:37:00,
2013-07-01 15:42:00,83.3,56.5,30.00,North,0,8.1,8.1,40,0.00,BKN,,0.00,WeatherDisplay:10.37,2013-07-01 20:42:00,
2013-07-01 15:47:00,83.1,57.0,30.00,NE,45,6.9,6.9,41,0.00,BKN,,0.00,WeatherDisplay:10.37,2013-07-01 20:47:00,
2013-07-01 15:52:00,83.1,57.0,30.00,NNW,338,9.2,9.2,41,0.00,BKN,,0.00,WeatherDisplay:10.37,2013-07-01 20:52:00,
2013-07-01 15:57:00,83.3,57.1,30.00,NNE,22,6.9,6.9,41,0.00,BKN,,0.00,WeatherDisplay:10.37,2013-07-01 20:57:00,
2013-07-01 16:02:00,83.5,57.3,30.00,NE,45,5.8,5.8,41,0.00,BKN,,0.00,WeatherDisplay:10.37,2013-07-01 21:02:00,
2013-07-01 16:07:00,83.5,57.3,30.00,NNW,338,3.5,4.0,41,0.00,BKN,,0.00,WeatherDisplay:10.37,2013-07-01 21:07:00,
2013-07-01 16:12:00,83.5,57.3,30.00,North,0,9.2,9.2,41,0.00,BKN,,0.00,WeatherDisplay:10.37,2013-07-01 21:12:00,
2013-07-01 16:17:00,83.1,57.0,30.00,North,0,8.7,8.7,41,0.00,BKN,,0.00,WeatherDisplay:10.37,2013-07-01 21:17:00,
2013-07-01 16:22:00,82.9,57.5,30.00,NE,45,8.1,8.1,42,0.00,BKN,,0.00,WeatherDisplay:10.37,2013-07-01 21:22:00,
2013-07-01 16:27:00,82.9,57.5,30.00,NNW,338,5.8,5.8,42,0.00,BKN,,0.00,WeatherDisplay:10.37,2013-07-01 21:27:00,
2013-07-01 16:32:00,82.9,56.8,29.97,NNW,338,6.9,6.9,41,0.00,BKN,,0.00,WeatherDisplay:10.37,2013-07-01 21:32:00,
2013-07-01 16:37:00,82.9,56.8,29.97,North,0,6.0,6.0,41,0.00,BKN,,0.00,WeatherDisplay:10.37,2013-07-01 21:37:00,
2013-07-01 16:42:00,83.7,58.1,29.97,WSW,248,3.5,3.5,42,0.00,BKN,,0.00,WeatherDisplay:10.37,2013-07-01 21:42:00,
2013-07-01 16:47:00,83.8,58.3,30.00,North,0,9.2,9.2,42,0.00,BKN,,0.00,WeatherDisplay:10.37,2013-07-01 21:47:00,
2013-07-01 16:52:00,83.8,58.3,30.00,NNE,22,6.9,6.9,42,0.00,BKN,,0.00,WeatherDisplay:10.37,2013-07-01 21:52:00,
2013-07-01 16:57:00,83.8,58.3,30.00,NNE,22,10.4,10.4,42,0.00,BKN,,0.00,WeatherDisplay:10.37,2013-07-01 21:57:00,
2013-07-01 17:02:00,83.8,58.3,30.00,NE,45,5.8,5.8,42,0.00,SCT,,0.00,WeatherDisplay:10.37,2013-07-01 22:02:00,
2013-07-01 17:07:00,83.7,57.5,30.00,NE,45,8.1,8.1,41,0.00,SCT,,0.00,WeatherDisplay:10.37,2013-07-01 22:07:00,
2013-07-01 17:12:00,83.1,57.0,30.00,South,180,3.5,3.5,41,0.00,SCT,,0.00,WeatherDisplay:10.37,2013-07-01 22:12:00,
2013-07-01 17:17:00,83.5,57.3,30.03,NNE,22,4.6,4.6,41,0.00,SCT,,0.00,WeatherDisplay:10.37,2013-07-01 22:17:00,
2013-07-01 17:22:00,83.8,57.6,30.03,North,0,3.5,6.4,41,0.00,SCT,,0.00,WeatherDisplay:10.37,2013-07-01 22:22:00,
2013-07-01 17:27:00,84.4,57.4,30.03,NNW,338,5.8,5.8,40,0.00,SCT,,0.00,WeatherDisplay:10.37,2013-07-01 22:27:00,
2013-07-01 17:32:00,84.6,57.6,30.00,NNE,22,12.7,12.7,40,0.00,CLR,,0.00,WeatherDisplay:10.37,2013-07-01 22:32:00,
2013-07-01 17:37:00,84.6,57.6,30.00,North,0,8.1,8.1,40,0.00,CLR,,0.00,WeatherDisplay:10.37,2013-07-01 22:37:00,
2013-07-01 17:42:00,84.7,57.7,30.00,NNW,338,5.8,5.8,40,0.00,CLR,,0.00,WeatherDisplay:10.37,2013-07-01 22:42:00,
2013-07-01 17:47:00,84.9,57.9,29.97,North,0,9.2,9.2,40,0.00,CLR,,0.00,WeatherDisplay:10.37,2013-07-01 22:47:00,
2013-07-01 17:52:00,84.9,57.9,29.97,NNE,22,8.1,8.1,40,0.00,CLR,,0.00,WeatherDisplay:10.37,2013-07-01 22:52:00,
2013-07-01 17:57:00,85.1,58.1,29.97,North,0,8.1,8.1,40,0.00,CLR,,0.00,WeatherDisplay:10.37,2013-07-01 22:57:00,
2013-07-01 18:02:00,85.3,58.2,29.97,NNE,22,6.9,6.9,40,0.00,CLR,,0.00,WeatherDisplay:10.37,2013-07-01 23:02:00,
2013-07-01 18:07:00,85.5,58.4,29.97,North,0,8.1,8.1,40,0.00,CLR,,0.00,WeatherDisplay:10.37,2013-07-01 23:07:00,
2013-07-01 18:12:00,85.5,58.4,29.97,North,0,8.1,8.1,40,0.00,CLR,,0.00,WeatherDisplay:10.37,2013-07-01 23:12:00,
2013-07-01 18:17:00,85.6,57.8,29.97,NE,45,2.3,2.4,39,0.00,CLR,,0.00,WeatherDisplay:10.37,2013-07-01 23:17:00,
2013-07-01 18:22:00,85.6,57.8,29.97,NNW,338,6.9,6.9,39,0.00,CLR,,0.00,WeatherDisplay:10.37,2013-07-01 23:22:00,
2013-07-01 18:27:00,85.8,58.0,29.94,NNE,22,10.4,10.4,39,0.00,CLR,,0.00,WeatherDisplay:10.37,2013-07-01 23:27:00,
2013-07-01 18:32:00,85.6,57.8,29.94,NNW,338,5.8,5.8,39,0.00,CLR,,0.00,WeatherDisplay:10.37,2013-07-01 23:32:00,
2013-07-01 18:37:00,85.6,57.8,29.94,North,0,6.9,6.9,39,0.00,CLR,,0.00,WeatherDisplay:10.37,2013-07-01 23:37:00,
2013-07-01 18:42:00,85.5,57.7,29.97,NW,315,8.1,8.1,39,0.00,CLR,,0.00,WeatherDisplay:10.37,2013-07-01 23:42:00,
2013-07-01 18:47:00,85.3,57.5,29.97,North,0,4.6,4.6,39,0.00,CLR,,0.00,WeatherDisplay:10.37,2013-07-01 23:47:00,
2013-07-01 18:52:00,85.1,57.4,29.97,NNE,22,5.8,5.8,39,0.00,CLR,,0.00,WeatherDisplay:10.37,2013-07-01 23:52:00,
2013-07-01 18:57:00,84.9,57.2,29.97,North,0,8.1,8.1,39,0.00,CLR,,0.00,WeatherDisplay:10.37,2013-07-01 23:57:00,
2013-07-01 19:02:00,84.9,57.2,29.97,North,0,5.8,5.8,39,0.00,SCT,,0.00,WeatherDisplay:10.37,2013-07-02 00:02:00,
2013-07-01 19:07:00,85.1,57.4,29.97,NW,315,5.8,5.8,39,0.00,SCT,,0.00,WeatherDisplay:10.37,2013-07-02 00:07:00,
2013-07-01 19:12:00,84.9,57.2,29.97,North,0,5.8,5.8,39,0.00,SCT,,0.00,WeatherDisplay:10.37,2013-07-02 00:12:00,
2013-07-01 19:17:00,84.2,56.6,29.97,NNW,338,3.5,3.5,39,0.00,CLR,,0.00,WeatherDisplay:10.37,2013-07-02 00:17:00,
2013-07-01 19:22:00,84.0,56.4,29.97,North,0,5.8,5.8,39,0.00,CLR,,0.00,WeatherDisplay:10.37,2013-07-02 00:22:00,
2013-07-01 19:27:00,83.5,55.9,29.97,North,0,5.8,5.8,39,0.00,CLR,,0.00,WeatherDisplay:10.37,2013-07-02 00:27:00,
2013-07-01 19:32:00,83.3,55.8,29.97,North,0,5.8,5.8,39,0.00,CLR,,0.00,WeatherDisplay:10.37,2013-07-02 00:32:00,
2013-07-01 19:38:00,82.9,55.4,29.97,NNW,338,4.0,4.0,39,0.00,CLR,,0.00,WeatherDisplay:10.37,2013-07-02 00:38:00,
2013-07-01 19:43:00,82.6,55.8,29.97,North,0,4.6,4.6,40,0.00,CLR,,0.00,WeatherDisplay:10.37,2013-07-02 00:43:00,
2013-07-01 19:48:00,82.2,55.5,29.97,NNE,22,2.3,2.4,40,0.00,CLR,,0.00,WeatherDisplay:10.37,2013-07-02 00:48:00,
2013-07-01 19:53:00,82.0,56.0,29.97,NNW,338,3.5,3.5,41,0.00,CLR,,0.00,WeatherDisplay:10.37,2013-07-02 00:53:00,
2013-07-01 19:58:00,81.7,55.7,29.97,NNE,22,2.3,2.4,41,0.00,CLR,,0.00,WeatherDisplay:10.37,2013-07-02 00:58:00,
2013-07-01 20:03:00,81.5,55.5,29.97,North,0,6.9,6.9,41,0.00,CLR,,0.00,WeatherDisplay:10.37,2013-07-02 01:03:00,
2013-07-01 20:08:00,81.1,55.2,29.97,North,0,4.6,4.6,41,0.00,CLR,,0.00,WeatherDisplay:10.37,2013-07-02 01:08:00,
2013-07-01 20:13:00,81.0,55.7,29.97,North,0,4.6,4.6,42,0.00,CLR,,0.00,WeatherDisplay:10.37,2013-07-02 01:13:00,
2013-07-01 20:18:00,80.8,55.5,29.97,NW,315,5.8,5.8,42,0.00,CLR,,0.00,WeatherDisplay:10.37,2013-07-02 01:18:00,
2013-07-01 20:23:00,80.4,55.2,29.97,North,0,3.5,3.5,42,0.00,CLR,,0.00,WeatherDisplay:10.37,2013-07-02 01:23:00,
2013-07-01 20:28:00,80.2,55.7,30.00,North,0,4.6,4.6,43,0.00,CLR,,0.00,WeatherDisplay:10.37,2013-07-02 01:28:00,
2013-07-01 20:33:00,80.1,55.5,30.00,North,0,2.3,2.3,43,0.00,BKN,,0.00,WeatherDisplay:10.37,2013-07-02 01:33:00,
2013-07-01 20:38:00,79.9,55.4,30.00,NE,45,5.8,5.8,43,0.00,BKN,,0.00,WeatherDisplay:10.37,2013-07-02 01:38:00,
2013-07-01 20:43:00,79.5,55.1,30.00,North,0,2.3,2.6,43,0.00,BKN,,0.00,WeatherDisplay:10.37,2013-07-02 01:43:00,
2013-07-01 20:48:00,79.2,54.7,30.00,North,0,2.3,2.3,43,0.00,BKN,,0.00,WeatherDisplay:10.37,2013-07-02 01:48:00,
2013-07-01 20:53:00,78.8,55.0,30.00,North,0,3.5,3.5,44,0.00,BKN,,0.00,WeatherDisplay:10.37,2013-07-02 01:53:00,
2013-07-01 20:58:00,78.4,54.7,30.00,NNE,22,2.3,2.3,44,0.00,BKN,,0.00,WeatherDisplay:10.37,2013-07-02 01:58:00,
2013-07-01 21:03:00,78.3,54.6,30.00,NNW,338,3.5,3.5,44,0.00,SCT,,0.00,WeatherDisplay:10.37,2013-07-02 02:03:00,
2013-07-01 21:08:00,77.9,54.8,30.00,NE,45,3.5,3.5,45,0.00,SCT,,0.00,WeatherDisplay:10.37,2013-07-02 02:08:00,
2013-07-01 21:13:00,77.7,54.7,30.00,North,0,3.5,3.5,45,0.00,SCT,,0.00,WeatherDisplay:10.37,2013-07-02 02:13:00,
2013-07-01 21:18:00,77.5,54.5,30.00,NW,315,1.2,1.6,45,0.00,SCT,,0.00,WeatherDisplay:10.37,2013-07-02 02:18:00,
2013-07-01 21:23:00,77.2,54.8,30.00,North,0,2.3,2.3,46,0.00,SCT,,0.00,WeatherDisplay:10.37,2013-07-02 02:23:00,
2013-07-01 21:28:00,77.0,54.6,30.03,NW,315,2.3,2.3,46,0.00,SCT,,0.00,WeatherDisplay:10.37,2013-07-02 02:28:00,
2013-07-01 21:33:00,76.8,55.1,30.03,North,0,2.3,2.3,47,0.00,CLR,,0.00,WeatherDisplay:10.37,2013-07-02 02:33:00,
2013-07-01 21:38:00,76.5,54.7,30.03,North,0,2.3,2.3,47,0.00,CLR,,0.00,WeatherDisplay:10.37,2013-07-02 02:38:00,
2013-07-01 21:43:00,76.5,54.7,30.00,NNE,22,3.5,3.5,47,0.00,CLR,,0.00,WeatherDisplay:10.37,2013-07-02 02:43:00,
2013-07-01 21:48:00,76.3,55.1,30.00,North,0,2.3,2.3,48,0.00,CLR,,0.00,WeatherDisplay:10.37,2013-07-02 02:48:00,
2013-07-01 21:53:00,76.1,55.0,30.00,North,0,1.2,1.4,48,0.00,CLR,,0.00,WeatherDisplay:10.37,2013-07-02 02:53:00,
2013-07-01 21:58:00,76.1,55.0,30.03,North,0,2.3,2.3,48,0.00,CLR,,0.00,WeatherDisplay:10.37,2013-07-02 02:58:00,
2013-07-01 22:03:00,75.7,54.7,30.03,North,0,1.2,1.2,48,0.00,CLR,,0.00,WeatherDisplay:10.37,2013-07-02 03:03:00,
2013-07-01 22:08:00,75.6,55.1,30.03,NW,315,0.0,0.9,49,0.00,CLR,,0.00,WeatherDisplay:10.37,2013-07-02 03:08:00,
2013-07-01 22:13:00,75.4,54.9,30.03,North,0,2.3,2.3,49,0.00,CLR,,0.00,WeatherDisplay:10.37,2013-07-02 03:13:00,
2013-07-01 22:18:00,75.2,54.7,30.03,North,0,2.3,2.3,49,0.00,CLR,,0.00,WeatherDisplay:10.37,2013-07-02 03:18:00,
2013-07-01 22:23:00,75.0,55.1,30.03,North,0,1.2,0.0,50,0.00,CLR,,0.00,WeatherDisplay:10.37,2013-07-02 03:23:00,
2013-07-01 22:28:00,74.8,55.5,30.03,North,0,1.2,1.2,51,0.00,CLR,,0.00,WeatherDisplay:10.37,2013-07-02 03:28:00,
2013-07-01 22:33:00,74.7,55.3,30.03,NNE,22,2.3,2.3,51,0.00,CLR,,0.00,WeatherDisplay:10.37,2013-07-02 03:33:00,
2013-07-01 22:38:00,74.5,55.2,30.03,NNE,22,1.2,1.2,51,0.00,CLR,,0.00,WeatherDisplay:10.37,2013-07-02 03:38:00,
2013-07-01 22:43:00,74.3,55.5,30.03,NNE,22,2.3,2.3,52,0.00,CLR,,0.00,WeatherDisplay:10.37,2013-07-02 03:43:00,
2013-07-01 22:48:00,74.3,55.5,30.03,NNW,338,1.2,0.0,52,0.00,CLR,,0.00,WeatherDisplay:10.37,2013-07-02 03:48:00,
2013-07-01 22:53:00,74.1,55.4,30.03,North,0,2.3,2.3,52,0.00,CLR,,0.00,WeatherDisplay:10.37,2013-07-02 03:53:00,
2013-07-01 22:58:00,73.9,55.2,30.03,North,0,2.3,2.3,52,0.00,CLR,,0.00,WeatherDisplay:10.37,2013-07-02 03:58:00,
2013-07-01 23:01:00,73.9,55.7,30.03,North,0,1.2,0.0,53,0.00,CLR,,0.00,WeatherDisplay:10.37,2013-07-02 04:01:00,
2013-07-01 23:06:00,73.8,55.6,30.03,North,0,2.3,2.3,53,0.00,CLR,,0.00,WeatherDisplay:10.37,2013-07-02 04:06:00,
2013-07-01 23:11:00,73.6,55.4,30.03,NNE,22,2.3,2.3,53,0.00,CLR,,0.00,WeatherDisplay:10.37,2013-07-02 04:11:00,
2013-07-01 23:16:00,73.6,55.9,30.03,North,0,1.2,1.2,54,0.00,CLR,,0.00,WeatherDisplay:10.37,2013-07-02 04:16:00,
2013-07-01 23:21:00,73.2,56.1,30.03,North,0,2.6,2.6,55,0.00,CLR,,0.00,WeatherDisplay:10.37,2013-07-02 04:21:00,
2013-07-01 23:26:00,73.2,56.1,30.03,NNW,338,2.3,2.4,55,0.00,CLR,,0.00,WeatherDisplay:10.37,2013-07-02 04:26:00,
2013-07-01 23:31:00,73.0,55.9,30.00,NNE,22,2.3,2.3,55,0.00,CLR,,0.00,WeatherDisplay:10.37,2013-07-02 04:31:00,
2013-07-01 23:36:00,72.9,55.7,30.00,North,0,2.4,2.4,55,0.00,CLR,,0.00,WeatherDisplay:10.37,2013-07-02 04:36:00,
2013-07-01 23:41:00,72.9,56.2,30.00,NNE,22,2.9,2.9,56,0.00,CLR,,0.00,WeatherDisplay:10.37,2013-07-02 04:41:00,
2013-07-01 23:46:00,72.7,56.1,30.00,North,0,3.5,3.5,56,0.00,CLR,,0.00,WeatherDisplay:10.37,2013-07-02 04:46:00,
2013-07-01 23:51:00,72.5,55.9,30.00,North,0,3.5,3.5,56,0.00,CLR,,0.00,WeatherDisplay:10.37,2013-07-02 04:51:00,
2013-07-01 23:56:00,72.5,56.4,30.00,North,0,3.5,3.5,57,0.00,CLR,,0.00,WeatherDisplay:10.37,2013-07-02 04:56:00,